sensor_id;sensor_type;location;lat;lon;timestamp;P1;durP1;ratioP1;P2;durP2;ratioP2
55784;SDS011;41709;52.536;5.688;2023-07-13T00:00:23;6.45;;;1.73;;
55784;SDS011;41709;52.536;5.688;2023-07-13T00:02:50;4.80;;;1.17;;
55784;SDS011;41709;52.536;5.688;2023-07-13T00:05:19;5.45;;;1.02;;
55784;SDS011;41709;52.536;5.688;2023-07-13T00:07:45;5.03;;;1.20;;
55784;SDS011;41709;52.536;5.688;2023-07-13T00:10:11;4.78;;;1.27;;
55784;SDS011;41709;52.536;5.688;2023-07-13T00:12:37;4.22;;;1.20;;
55784;SDS011;41709;52.536;5.688;2023-07-13T00:15:05;4.95;;;1.05;;
55784;SDS011;41709;52.536;5.688;2023-07-13T00:17:35;3.60;;;1.05;;
55784;SDS011;41709;52.536;5.688;2023-07-13T00:20:00;4.57;;;1.58;;
55784;SDS011;41709;52.536;5.688;2023-07-13T00:22:26;8.32;;;1.58;;
55784;SDS011;41709;52.536;5.688;2023-07-13T00:24:52;12.65;;;1.77;;
55784;SDS011;41709;52.536;5.688;2023-07-13T00:27:20;9.07;;;1.67;;
55784;SDS011;41709;52.536;5.688;2023-07-13T00:29:46;8.70;;;2.10;;
55784;SDS011;41709;52.536;5.688;2023-07-13T00:32:11;8.93;;;1.60;;
55784;SDS011;41709;52.536;5.688;2023-07-13T00:34:38;12.05;;;1.80;;
55784;SDS011;41709;52.536;5.688;2023-07-13T00:37:04;5.13;;;1.55;;
55784;SDS011;41709;52.536;5.688;2023-07-13T00:39:33;7.18;;;1.85;;
55784;SDS011;41709;52.536;5.688;2023-07-13T00:42:00;7.50;;;2.85;;
55784;SDS011;41709;52.536;5.688;2023-07-13T00:44:27;11.13;;;1.85;;
55784;SDS011;41709;52.536;5.688;2023-07-13T00:46:53;8.52;;;1.70;;
55784;SDS011;41709;52.536;5.688;2023-07-13T00:49:22;7.38;;;1.38;;
55784;SDS011;41709;52.536;5.688;2023-07-13T00:51:52;11.75;;;1.90;;
55784;SDS011;41709;52.536;5.688;2023-07-13T00:54:24;10.93;;;2.00;;
55784;SDS011;41709;52.536;5.688;2023-07-13T00:56:56;9.00;;;2.05;;
55784;SDS011;41709;52.536;5.688;2023-07-13T00:59:24;14.23;;;2.50;;
55784;SDS011;41709;52.536;5.688;2023-07-13T01:01:50;8.13;;;1.98;;
55784;SDS011;41709;52.536;5.688;2023-07-13T01:04:16;13.00;;;2.67;;
55784;SDS011;41709;52.536;5.688;2023-07-13T01:06:42;12.35;;;2.15;;
55784;SDS011;41709;52.536;5.688;2023-07-13T01:09:09;16.77;;;2.63;;
55784;SDS011;41709;52.536;5.688;2023-07-13T01:11:36;11.15;;;2.20;;
55784;SDS011;41709;52.536;5.688;2023-07-13T01:14:02;7.93;;;2.10;;
55784;SDS011;41709;52.536;5.688;2023-07-13T01:16:30;12.05;;;2.30;;
55784;SDS011;41709;52.536;5.688;2023-07-13T01:18:58;15.07;;;3.03;;
55784;SDS011;41709;52.536;5.688;2023-07-13T01:21:26;12.25;;;2.47;;
55784;SDS011;41709;52.536;5.688;2023-07-13T01:23:53;13.27;;;3.45;;
55784;SDS011;41709;52.536;5.688;2023-07-13T01:26:19;12.77;;;4.15;;
55784;SDS011;41709;52.536;5.688;2023-07-13T01:28:45;19.05;;;3.15;;
55784;SDS011;41709;52.536;5.688;2023-07-13T01:31:11;13.60;;;2.97;;
55784;SDS011;41709;52.536;5.688;2023-07-13T01:33:38;12.70;;;3.03;;
55784;SDS011;41709;52.536;5.688;2023-07-13T01:36:05;12.68;;;3.08;;
55784;SDS011;41709;52.536;5.688;2023-07-13T01:38:32;10.57;;;2.50;;
55784;SDS011;41709;52.536;5.688;2023-07-13T01:40:58;10.73;;;3.03;;
55784;SDS011;41709;52.536;5.688;2023-07-13T01:43:24;16.58;;;2.92;;
55784;SDS011;41709;52.536;5.688;2023-07-13T01:45:50;14.50;;;3.17;;
55784;SDS011;41709;52.536;5.688;2023-07-13T01:48:16;12.68;;;2.72;;
55784;SDS011;41709;52.536;5.688;2023-07-13T01:50:41;16.23;;;3.47;;
55784;SDS011;41709;52.536;5.688;2023-07-13T01:53:07;14.30;;;2.60;;
55784;SDS011;41709;52.536;5.688;2023-07-13T01:55:33;12.57;;;2.72;;
55784;SDS011;41709;52.536;5.688;2023-07-13T01:58:00;21.05;;;3.58;;
55784;SDS011;41709;52.536;5.688;2023-07-13T02:00:26;13.95;;;2.45;;
55784;SDS011;41709;52.536;5.688;2023-07-13T02:02:52;14.38;;;2.67;;
55784;SDS011;41709;52.536;5.688;2023-07-13T02:05:17;10.90;;;3.20;;
55784;SDS011;41709;52.536;5.688;2023-07-13T02:07:43;13.88;;;3.20;;
55784;SDS011;41709;52.536;5.688;2023-07-13T02:10:09;14.00;;;2.47;;
55784;SDS011;41709;52.536;5.688;2023-07-13T02:12:35;10.98;;;2.70;;
55784;SDS011;41709;52.536;5.688;2023-07-13T02:15:02;13.55;;;2.95;;
55784;SDS011;41709;52.536;5.688;2023-07-13T02:17:28;12.00;;;2.00;;
55784;SDS011;41709;52.536;5.688;2023-07-13T02:19:54;17.17;;;3.00;;
55784;SDS011;41709;52.536;5.688;2023-07-13T02:22:20;12.23;;;2.53;;
55784;SDS011;41709;52.536;5.688;2023-07-13T02:24:46;12.32;;;2.58;;
55784;SDS011;41709;52.536;5.688;2023-07-13T02:27:11;11.95;;;2.45;;
55784;SDS011;41709;52.536;5.688;2023-07-13T02:29:37;10.48;;;2.90;;
55784;SDS011;41709;52.536;5.688;2023-07-13T02:32:03;20.80;;;2.90;;
55784;SDS011;41709;52.536;5.688;2023-07-13T02:34:29;8.65;;;1.80;;
55784;SDS011;41709;52.536;5.688;2023-07-13T02:36:54;9.90;;;2.35;;
55784;SDS011;41709;52.536;5.688;2023-07-13T02:39:20;10.57;;;2.42;;
55784;SDS011;41709;52.536;5.688;2023-07-13T02:41:46;10.38;;;2.20;;
55784;SDS011;41709;52.536;5.688;2023-07-13T02:44:12;14.23;;;2.80;;
55784;SDS011;41709;52.536;5.688;2023-07-13T02:46:39;9.80;;;1.85;;
55784;SDS011;41709;52.536;5.688;2023-07-13T02:49:05;11.63;;;2.80;;
55784;SDS011;41709;52.536;5.688;2023-07-13T02:51:31;12.55;;;1.98;;
55784;SDS011;41709;52.536;5.688;2023-07-13T02:53:59;11.00;;;2.42;;
55784;SDS011;41709;52.536;5.688;2023-07-13T02:56:28;8.98;;;2.50;;
55784;SDS011;41709;52.536;5.688;2023-07-13T02:58:55;11.05;;;2.25;;
55784;SDS011;41709;52.536;5.688;2023-07-13T03:01:22;14.25;;;3.35;;
55784;SDS011;41709;52.536;5.688;2023-07-13T03:03:48;12.65;;;2.50;;
55784;SDS011;41709;52.536;5.688;2023-07-13T03:06:15;13.68;;;2.35;;
55784;SDS011;41709;52.536;5.688;2023-07-13T03:08:41;12.48;;;3.67;;
55784;SDS011;41709;52.536;5.688;2023-07-13T03:11:16;12.88;;;2.83;;
55784;SDS011;41709;52.536;5.688;2023-07-13T03:13:43;9.68;;;2.33;;
55784;SDS011;41709;52.536;5.688;2023-07-13T03:16:09;8.95;;;2.22;;
55784;SDS011;41709;52.536;5.688;2023-07-13T03:18:36;7.78;;;2.00;;
55784;SDS011;41709;52.536;5.688;2023-07-13T03:21:03;12.60;;;2.45;;
55784;SDS011;41709;52.536;5.688;2023-07-13T03:23:29;13.20;;;2.45;;
55784;SDS011;41709;52.536;5.688;2023-07-13T03:26:05;13.23;;;2.50;;
55784;SDS011;41709;52.536;5.688;2023-07-13T03:28:33;8.70;;;2.50;;
55784;SDS011;41709;52.536;5.688;2023-07-13T03:30:59;10.82;;;2.00;;
55784;SDS011;41709;52.536;5.688;2023-07-13T03:33:30;12.20;;;2.50;;
55784;SDS011;41709;52.536;5.688;2023-07-13T03:35:56;9.40;;;2.05;;
55784;SDS011;41709;52.536;5.688;2023-07-13T03:38:22;10.35;;;2.10;;
55784;SDS011;41709;52.536;5.688;2023-07-13T03:40:48;9.32;;;2.15;;
55784;SDS011;41709;52.536;5.688;2023-07-13T03:43:13;14.00;;;2.67;;
55784;SDS011;41709;52.536;5.688;2023-07-13T03:45:39;10.13;;;2.55;;
55784;SDS011;41709;52.536;5.688;2023-07-13T03:48:05;11.88;;;2.45;;
55784;SDS011;41709;52.536;5.688;2023-07-13T03:50:31;7.82;;;2.40;;
55784;SDS011;41709;52.536;5.688;2023-07-13T03:52:57;10.48;;;2.65;;
55784;SDS011;41709;52.536;5.688;2023-07-13T03:55:23;9.80;;;2.30;;
55784;SDS011;41709;52.536;5.688;2023-07-13T03:57:53;14.13;;;2.97;;
55784;SDS011;41709;52.536;5.688;2023-07-13T04:00:24;7.72;;;2.30;;
55784;SDS011;41709;52.536;5.688;2023-07-13T04:02:50;13.50;;;3.13;;
55784;SDS011;41709;52.536;5.688;2023-07-13T04:05:16;15.27;;;3.13;;
55784;SDS011;41709;52.536;5.688;2023-07-13T04:07:42;13.20;;;2.60;;
55784;SDS011;41709;52.536;5.688;2023-07-13T04:10:08;10.88;;;2.55;;
55784;SDS011;41709;52.536;5.688;2023-07-13T04:12:34;7.00;;;2.53;;
55784;SDS011;41709;52.536;5.688;2023-07-13T04:15:00;7.15;;;2.90;;
55784;SDS011;41709;52.536;5.688;2023-07-13T04:17:25;10.63;;;3.28;;
55784;SDS011;41709;52.536;5.688;2023-07-13T04:19:51;12.60;;;3.05;;
55784;SDS011;41709;52.536;5.688;2023-07-13T04:22:16;11.82;;;3.22;;
55784;SDS011;41709;52.536;5.688;2023-07-13T04:24:42;11.27;;;2.83;;
55784;SDS011;41709;52.536;5.688;2023-07-13T04:27:08;12.25;;;3.20;;
55784;SDS011;41709;52.536;5.688;2023-07-13T04:29:34;18.00;;;4.15;;
55784;SDS011;41709;52.536;5.688;2023-07-13T04:32:00;12.07;;;2.78;;
55784;SDS011;41709;52.536;5.688;2023-07-13T04:34:26;10.80;;;2.90;;
55784;SDS011;41709;52.536;5.688;2023-07-13T04:36:51;10.48;;;2.65;;
55784;SDS011;41709;52.536;5.688;2023-07-13T04:39:17;11.18;;;2.35;;
55784;SDS011;41709;52.536;5.688;2023-07-13T04:41:42;9.90;;;2.80;;
55784;SDS011;41709;52.536;5.688;2023-07-13T04:44:08;11.38;;;2.30;;
55784;SDS011;41709;52.536;5.688;2023-07-13T04:46:34;7.80;;;2.40;;
55784;SDS011;41709;52.536;5.688;2023-07-13T04:48:59;9.57;;;2.17;;
55784;SDS011;41709;52.536;5.688;2023-07-13T04:51:25;10.57;;;2.55;;
55784;SDS011;41709;52.536;5.688;2023-07-13T04:53:51;9.32;;;2.25;;
55784;SDS011;41709;52.536;5.688;2023-07-13T04:56:17;8.00;;;2.60;;
55784;SDS011;41709;52.536;5.688;2023-07-13T04:58:44;10.45;;;2.58;;
55784;SDS011;41709;52.536;5.688;2023-07-13T05:01:10;10.50;;;1.92;;
55784;SDS011;41709;52.536;5.688;2023-07-13T05:03:36;8.57;;;2.30;;
55784;SDS011;41709;52.536;5.688;2023-07-13T05:06:03;13.32;;;1.83;;
55784;SDS011;41709;52.536;5.688;2023-07-13T05:08:30;13.85;;;1.95;;
55784;SDS011;41709;52.536;5.688;2023-07-13T05:10:56;10.68;;;1.95;;
55784;SDS011;41709;52.536;5.688;2023-07-13T05:13:21;6.68;;;2.00;;
55784;SDS011;41709;52.536;5.688;2023-07-13T05:15:55;9.55;;;1.80;;
55784;SDS011;41709;52.536;5.688;2023-07-13T05:18:25;14.07;;;2.40;;
55784;SDS011;41709;52.536;5.688;2023-07-13T05:21:02;6.53;;;1.90;;
55784;SDS011;41709;52.536;5.688;2023-07-13T05:23:30;9.35;;;2.15;;
55784;SDS011;41709;52.536;5.688;2023-07-13T05:25:56;8.15;;;2.25;;
55784;SDS011;41709;52.536;5.688;2023-07-13T05:28:22;7.47;;;2.10;;
55784;SDS011;41709;52.536;5.688;2023-07-13T05:30:48;7.35;;;2.17;;
55784;SDS011;41709;52.536;5.688;2023-07-13T05:33:14;11.00;;;2.72;;
55784;SDS011;41709;52.536;5.688;2023-07-13T05:35:41;11.95;;;3.05;;
55784;SDS011;41709;52.536;5.688;2023-07-13T05:38:06;11.18;;;2.40;;
55784;SDS011;41709;52.536;5.688;2023-07-13T05:40:32;11.10;;;2.58;;
55784;SDS011;41709;52.536;5.688;2023-07-13T05:42:58;7.72;;;2.25;;
55784;SDS011;41709;52.536;5.688;2023-07-13T05:45:24;8.55;;;2.67;;
55784;SDS011;41709;52.536;5.688;2023-07-13T05:47:50;10.73;;;3.20;;
55784;SDS011;41709;52.536;5.688;2023-07-13T05:50:16;11.88;;;2.30;;
55784;SDS011;41709;52.536;5.688;2023-07-13T05:52:42;15.07;;;3.25;;
55784;SDS011;41709;52.536;5.688;2023-07-13T05:55:08;10.15;;;2.40;;
55784;SDS011;41709;52.536;5.688;2023-07-13T05:57:33;9.30;;;2.20;;
55784;SDS011;41709;52.536;5.688;2023-07-13T05:59:59;13.63;;;2.92;;
55784;SDS011;41709;52.536;5.688;2023-07-13T06:02:24;9.02;;;2.20;;
55784;SDS011;41709;52.536;5.688;2023-07-13T06:04:51;11.60;;;2.50;;
55784;SDS011;41709;52.536;5.688;2023-07-13T06:07:17;9.98;;;3.45;;
55784;SDS011;41709;52.536;5.688;2023-07-13T06:09:42;12.43;;;3.45;;
55784;SDS011;41709;52.536;5.688;2023-07-13T06:12:08;11.75;;;2.97;;
55784;SDS011;41709;52.536;5.688;2023-07-13T06:14:34;9.23;;;2.55;;
55784;SDS011;41709;52.536;5.688;2023-07-13T06:17:00;12.98;;;2.30;;
55784;SDS011;41709;52.536;5.688;2023-07-13T06:19:26;9.95;;;3.53;;
55784;SDS011;41709;52.536;5.688;2023-07-13T06:21:51;8.98;;;2.55;;
55784;SDS011;41709;52.536;5.688;2023-07-13T06:24:17;12.05;;;3.00;;
55784;SDS011;41709;52.536;5.688;2023-07-13T06:26:42;5.97;;;2.20;;
55784;SDS011;41709;52.536;5.688;2023-07-13T06:29:08;15.80;;;3.47;;
55784;SDS011;41709;52.536;5.688;2023-07-13T06:31:34;10.65;;;3.03;;
55784;SDS011;41709;52.536;5.688;2023-07-13T06:33:59;11.98;;;2.90;;
55784;SDS011;41709;52.536;5.688;2023-07-13T06:36:25;15.05;;;3.78;;
55784;SDS011;41709;52.536;5.688;2023-07-13T06:38:51;13.50;;;3.28;;
55784;SDS011;41709;52.536;5.688;2023-07-13T06:41:16;11.07;;;3.20;;
55784;SDS011;41709;52.536;5.688;2023-07-13T06:43:42;16.17;;;3.20;;
55784;SDS011;41709;52.536;5.688;2023-07-13T06:46:08;14.32;;;3.53;;
55784;SDS011;41709;52.536;5.688;2023-07-13T06:48:34;14.82;;;3.58;;
55784;SDS011;41709;52.536;5.688;2023-07-13T06:51:01;11.38;;;3.10;;
55784;SDS011;41709;52.536;5.688;2023-07-13T06:53:27;12.55;;;3.38;;
55784;SDS011;41709;52.536;5.688;2023-07-13T06:55:53;13.60;;;3.83;;
55784;SDS011;41709;52.536;5.688;2023-07-13T06:58:18;14.90;;;3.25;;
55784;SDS011;41709;52.536;5.688;2023-07-13T07:00:44;9.77;;;3.05;;
55784;SDS011;41709;52.536;5.688;2023-07-13T07:03:10;21.95;;;3.55;;
55784;SDS011;41709;52.536;5.688;2023-07-13T07:05:36;15.55;;;3.55;;
55784;SDS011;41709;52.536;5.688;2023-07-13T07:08:02;9.98;;;3.00;;
55784;SDS011;41709;52.536;5.688;2023-07-13T07:10:28;11.13;;;3.53;;
55784;SDS011;41709;52.536;5.688;2023-07-13T07:12:55;15.50;;;3.97;;
55784;SDS011;41709;52.536;5.688;2023-07-13T07:15:20;13.70;;;3.40;;
55784;SDS011;41709;52.536;5.688;2023-07-13T07:17:46;13.55;;;3.53;;
55784;SDS011;41709;52.536;5.688;2023-07-13T07:20:12;10.25;;;3.00;;
55784;SDS011;41709;52.536;5.688;2023-07-13T07:22:38;10.73;;;3.17;;
55784;SDS011;41709;52.536;5.688;2023-07-13T07:25:04;12.48;;;3.70;;
55784;SDS011;41709;52.536;5.688;2023-07-13T07:27:29;9.25;;;3.33;;
55784;SDS011;41709;52.536;5.688;2023-07-13T07:29:55;12.65;;;3.95;;
55784;SDS011;41709;52.536;5.688;2023-07-13T07:32:22;11.30;;;3.35;;
55784;SDS011;41709;52.536;5.688;2023-07-13T07:34:48;9.40;;;2.70;;
55784;SDS011;41709;52.536;5.688;2023-07-13T07:37:14;10.65;;;2.70;;
55784;SDS011;41709;52.536;5.688;2023-07-13T07:39:40;11.23;;;2.45;;
55784;SDS011;41709;52.536;5.688;2023-07-13T07:42:06;11.25;;;2.78;;
55784;SDS011;41709;52.536;5.688;2023-07-13T07:44:31;9.98;;;2.97;;
55784;SDS011;41709;52.536;5.688;2023-07-13T07:46:58;12.95;;;3.30;;
55784;SDS011;41709;52.536;5.688;2023-07-13T07:49:23;9.73;;;2.90;;
55784;SDS011;41709;52.536;5.688;2023-07-13T07:51:49;8.15;;;2.35;;
55784;SDS011;41709;52.536;5.688;2023-07-13T07:54:15;8.90;;;2.63;;
55784;SDS011;41709;52.536;5.688;2023-07-13T07:56:41;6.07;;;2.22;;
55784;SDS011;41709;52.536;5.688;2023-07-13T07:59:07;18.80;;;4.43;;
55784;SDS011;41709;52.536;5.688;2023-07-13T08:01:33;3.45;;;1.10;;
55784;SDS011;41709;52.536;5.688;2023-07-13T08:03:58;5.35;;;1.45;;
55784;SDS011;41709;52.536;5.688;2023-07-13T08:06:24;4.88;;;1.33;;
55784;SDS011;41709;52.536;5.688;2023-07-13T08:08:50;6.10;;;2.30;;
55784;SDS011;41709;52.536;5.688;2023-07-13T08:11:16;10.15;;;2.90;;
55784;SDS011;41709;52.536;5.688;2023-07-13T08:13:42;6.10;;;2.28;;
55784;SDS011;41709;52.536;5.688;2023-07-13T08:16:08;5.82;;;1.67;;
55784;SDS011;41709;52.536;5.688;2023-07-13T08:18:34;6.97;;;1.85;;
55784;SDS011;41709;52.536;5.688;2023-07-13T08:21:04;5.20;;;1.80;;
55784;SDS011;41709;52.536;5.688;2023-07-13T08:23:30;4.38;;;1.70;;
55784;SDS011;41709;52.536;5.688;2023-07-13T08:25:55;6.15;;;2.17;;
55784;SDS011;41709;52.536;5.688;2023-07-13T08:28:22;4.38;;;1.70;;
55784;SDS011;41709;52.536;5.688;2023-07-13T08:30:47;5.80;;;1.90;;
55784;SDS011;41709;52.536;5.688;2023-07-13T08:33:17;5.60;;;2.00;;
55784;SDS011;41709;52.536;5.688;2023-07-13T08:35:47;5.05;;;2.30;;
55784;SDS011;41709;52.536;5.688;2023-07-13T08:38:14;5.55;;;2.22;;
55784;SDS011;41709;52.536;5.688;2023-07-13T08:40:40;5.32;;;1.85;;
55784;SDS011;41709;52.536;5.688;2023-07-13T08:43:09;7.22;;;2.15;;
55784;SDS011;41709;52.536;5.688;2023-07-13T08:48:17;5.72;;;2.50;;
55784;SDS011;41709;52.536;5.688;2023-07-13T08:50:57;7.38;;;2.10;;
55784;SDS011;41709;52.536;5.688;2023-07-13T08:53:32;5.78;;;2.30;;
55784;SDS011;41709;52.536;5.688;2023-07-13T08:56:02;3.45;;;2.20;;
55784;SDS011;41709;52.536;5.688;2023-07-13T08:58:34;5.72;;;3.05;;
55784;SDS011;41709;52.536;5.688;2023-07-13T09:03:46;7.53;;;2.72;;
55784;SDS011;41709;52.536;5.688;2023-07-13T09:06:23;5.60;;;2.80;;
55784;SDS011;41709;52.536;5.688;2023-07-13T09:09:05;4.50;;;2.55;;
55784;SDS011;41709;52.536;5.688;2023-07-13T09:11:50;5.18;;;2.38;;
55784;SDS011;41709;52.536;5.688;2023-07-13T09:17:05;6.75;;;2.78;;
55784;SDS011;41709;52.536;5.688;2023-07-13T09:19:36;4.97;;;2.88;;
55784;SDS011;41709;52.536;5.688;2023-07-13T09:22:03;7.57;;;3.60;;
55784;SDS011;41709;52.536;5.688;2023-07-13T09:27:01;7.57;;;2.40;;
55784;SDS011;41709;52.536;5.688;2023-07-13T09:29:42;4.25;;;2.33;;
55784;SDS011;41709;52.536;5.688;2023-07-13T09:32:14;7.07;;;2.60;;
55784;SDS011;41709;52.536;5.688;2023-07-13T09:34:49;7.03;;;3.80;;
55784;SDS011;41709;52.536;5.688;2023-07-13T09:37:16;5.80;;;2.95;;
55784;SDS011;41709;52.536;5.688;2023-07-13T09:39:42;10.95;;;2.58;;
55784;SDS011;41709;52.536;5.688;2023-07-13T09:47:17;8.13;;;2.60;;
55784;SDS011;41709;52.536;5.688;2023-07-13T09:49:44;7.68;;;2.72;;
55784;SDS011;41709;52.536;5.688;2023-07-13T09:52:11;8.57;;;2.53;;
55784;SDS011;41709;52.536;5.688;2023-07-13T09:54:39;8.73;;;3.13;;
55784;SDS011;41709;52.536;5.688;2023-07-13T09:57:13;6.38;;;2.55;;
55784;SDS011;41709;52.536;5.688;2023-07-13T09:59:43;4.93;;;2.33;;
55784;SDS011;41709;52.536;5.688;2023-07-13T10:05:03;5.55;;;2.20;;
55784;SDS011;41709;52.536;5.688;2023-07-13T10:07:30;4.70;;;1.90;;
55784;SDS011;41709;52.536;5.688;2023-07-13T10:09:57;3.47;;;1.42;;
55784;SDS011;41709;52.536;5.688;2023-07-13T10:12:26;6.45;;;1.90;;
55784;SDS011;41709;52.536;5.688;2023-07-13T10:14:54;2.85;;;1.40;;
55784;SDS011;41709;52.536;5.688;2023-07-13T10:17:31;4.53;;;1.45;;
55784;SDS011;41709;52.536;5.688;2023-07-13T10:19:59;3.50;;;1.20;;
55784;SDS011;41709;52.536;5.688;2023-07-13T10:22:45;6.72;;;2.38;;
55784;SDS011;41709;52.536;5.688;2023-07-13T10:25:33;5.50;;;2.08;;
55784;SDS011;41709;52.536;5.688;2023-07-13T10:28:05;5.13;;;1.92;;
55784;SDS011;41709;52.536;5.688;2023-07-13T10:30:39;2.83;;;1.30;;
55784;SDS011;41709;52.536;5.688;2023-07-13T10:33:12;7.20;;;2.00;;
55784;SDS011;41709;52.536;5.688;2023-07-13T10:35:38;5.05;;;1.83;;
55784;SDS011;41709;52.536;5.688;2023-07-13T10:38:11;6.75;;;2.30;;
55784;SDS011;41709;52.536;5.688;2023-07-13T10:41:01;7.05;;;1.80;;
55784;SDS011;41709;52.536;5.688;2023-07-13T10:43:34;4.05;;;1.63;;
55784;SDS011;41709;52.536;5.688;2023-07-13T10:46:04;5.85;;;2.00;;
55784;SDS011;41709;52.536;5.688;2023-07-13T10:48:33;5.00;;;1.50;;
55784;SDS011;41709;52.536;5.688;2023-07-13T10:51:01;6.57;;;2.25;;
55784;SDS011;41709;52.536;5.688;2023-07-13T10:53:31;7.15;;;2.13;;
55784;SDS011;41709;52.536;5.688;2023-07-13T10:58:37;3.42;;;1.33;;
55784;SDS011;41709;52.536;5.688;2023-07-13T11:03:59;7.68;;;1.55;;
55784;SDS011;41709;52.536;5.688;2023-07-13T11:08:55;5.50;;;1.73;;
55784;SDS011;41709;52.536;5.688;2023-07-13T11:18:46;4.35;;;1.75;;
55784;SDS011;41709;52.536;5.688;2023-07-13T11:21:15;7.50;;;1.90;;
55784;SDS011;41709;52.536;5.688;2023-07-13T11:24:00;4.45;;;1.73;;
55784;SDS011;41709;52.536;5.688;2023-07-13T11:29:24;4.65;;;1.42;;
55784;SDS011;41709;52.536;5.688;2023-07-13T11:31:54;4.32;;;1.63;;
55784;SDS011;41709;52.536;5.688;2023-07-13T11:34:35;3.72;;;1.60;;
55784;SDS011;41709;52.536;5.688;2023-07-13T11:37:03;3.55;;;1.55;;
55784;SDS011;41709;52.536;5.688;2023-07-13T11:39:30;6.65;;;1.65;;
55784;SDS011;41709;52.536;5.688;2023-07-13T11:41:57;4.03;;;1.35;;
55784;SDS011;41709;52.536;5.688;2023-07-13T11:44:29;4.53;;;1.75;;
55784;SDS011;41709;52.536;5.688;2023-07-13T11:46:57;8.70;;;2.35;;
55784;SDS011;41709;52.536;5.688;2023-07-13T11:49:28;8.40;;;1.65;;
55784;SDS011;41709;52.536;5.688;2023-07-13T11:51:55;4.53;;;1.27;;
55784;SDS011;41709;52.536;5.688;2023-07-13T11:54:24;4.07;;;1.42;;
55784;SDS011;41709;52.536;5.688;2023-07-13T11:57:24;4.60;;;1.60;;
55784;SDS011;41709;52.536;5.688;2023-07-13T11:59:54;4.25;;;1.80;;
55784;SDS011;41709;52.536;5.688;2023-07-13T12:04:59;4.53;;;1.98;;
55784;SDS011;41709;52.536;5.688;2023-07-13T12:07:28;6.33;;;1.87;;
55784;SDS011;41709;52.536;5.688;2023-07-13T12:10:29;5.93;;;1.57;;
55784;SDS011;41709;52.536;5.688;2023-07-13T12:12:53;8.95;;;1.38;;
55784;SDS011;41709;52.536;5.688;2023-07-13T12:15:24;5.07;;;1.73;;
55784;SDS011;41709;52.536;5.688;2023-07-13T12:18:12;4.68;;;1.42;;
55784;SDS011;41709;52.536;5.688;2023-07-13T12:20:40;3.55;;;1.75;;
55784;SDS011;41709;52.536;5.688;2023-07-13T12:23:06;3.60;;;1.73;;
55784;SDS011;41709;52.536;5.688;2023-07-13T12:25:55;7.22;;;1.52;;
55784;SDS011;41709;52.536;5.688;2023-07-13T12:28:33;2.03;;;1.38;;
55784;SDS011;41709;52.536;5.688;2023-07-13T12:31:04;4.40;;;1.30;;
55784;SDS011;41709;52.536;5.688;2023-07-13T12:33:48;5.13;;;1.70;;
55784;SDS011;41709;52.536;5.688;2023-07-13T12:36:24;3.65;;;1.40;;
55784;SDS011;41709;52.536;5.688;2023-07-13T12:38:50;3.80;;;1.30;;
55784;SDS011;41709;52.536;5.688;2023-07-13T12:41:16;4.35;;;1.10;;
55784;SDS011;41709;52.536;5.688;2023-07-13T12:43:42;5.25;;;1.70;;
55784;SDS011;41709;52.536;5.688;2023-07-13T12:46:15;5.63;;;1.80;;
55784;SDS011;41709;52.536;5.688;2023-07-13T12:48:52;5.65;;;1.60;;
55784;SDS011;41709;52.536;5.688;2023-07-13T12:51:23;2.78;;;1.00;;
55784;SDS011;41709;52.536;5.688;2023-07-13T12:54:05;5.82;;;1.60;;
55784;SDS011;41709;52.536;5.688;2023-07-13T12:56:38;5.22;;;1.55;;
55784;SDS011;41709;52.536;5.688;2023-07-13T12:59:03;3.50;;;1.45;;
55784;SDS011;41709;52.536;5.688;2023-07-13T13:01:32;6.28;;;1.50;;
55784;SDS011;41709;52.536;5.688;2023-07-13T13:04:02;4.57;;;1.50;;
55784;SDS011;41709;52.536;5.688;2023-07-13T13:06:33;4.10;;;1.45;;
55784;SDS011;41709;52.536;5.688;2023-07-13T13:09:01;10.43;;;2.30;;
55784;SDS011;41709;52.536;5.688;2023-07-13T13:11:29;5.13;;;1.85;;
55784;SDS011;41709;52.536;5.688;2023-07-13T13:13:56;7.13;;;1.77;;
55784;SDS011;41709;52.536;5.688;2023-07-13T13:18:51;2.47;;;1.40;;
55784;SDS011;41709;52.536;5.688;2023-07-13T13:21:18;5.53;;;1.55;;
55784;SDS011;41709;52.536;5.688;2023-07-13T13:23:45;4.53;;;1.52;;
55784;SDS011;41709;52.536;5.688;2023-07-13T13:26:12;9.43;;;1.80;;
55784;SDS011;41709;52.536;5.688;2023-07-13T13:28:42;4.47;;;1.38;;
55784;SDS011;41709;52.536;5.688;2023-07-13T13:31:13;5.97;;;1.88;;
55784;SDS011;41709;52.536;5.688;2023-07-13T13:33:40;5.70;;;1.70;;
55784;SDS011;41709;52.536;5.688;2023-07-13T13:36:16;3.88;;;1.48;;
55784;SDS011;41709;52.536;5.688;2023-07-13T13:38:44;3.65;;;1.50;;
55784;SDS011;41709;52.536;5.688;2023-07-13T13:41:10;5.53;;;1.67;;
55784;SDS011;41709;52.536;5.688;2023-07-13T13:43:38;6.33;;;1.70;;
55784;SDS011;41709;52.536;5.688;2023-07-13T13:46:05;3.40;;;1.33;;
55784;SDS011;41709;52.536;5.688;2023-07-13T13:48:47;4.60;;;1.52;;
55784;SDS011;41709;52.536;5.688;2023-07-13T13:51:20;5.40;;;1.30;;
55784;SDS011;41709;52.536;5.688;2023-07-13T13:53:48;6.30;;;1.67;;
55784;SDS011;41709;52.536;5.688;2023-07-13T13:56:15;6.90;;;2.00;;
55784;SDS011;41709;52.536;5.688;2023-07-13T13:58:42;5.07;;;1.55;;
55784;SDS011;41709;52.536;5.688;2023-07-13T14:01:18;6.10;;;1.60;;
55784;SDS011;41709;52.536;5.688;2023-07-13T14:03:45;4.55;;;1.13;;
55784;SDS011;41709;52.536;5.688;2023-07-13T14:06:14;3.55;;;1.38;;
55784;SDS011;41709;52.536;5.688;2023-07-13T14:08:40;5.00;;;1.85;;
55784;SDS011;41709;52.536;5.688;2023-07-13T14:11:07;5.18;;;1.85;;
55784;SDS011;41709;52.536;5.688;2023-07-13T14:13:38;4.55;;;1.80;;
55784;SDS011;41709;52.536;5.688;2023-07-13T14:16:16;5.25;;;2.20;;
55784;SDS011;41709;52.536;5.688;2023-07-13T14:18:44;4.15;;;1.80;;
55784;SDS011;41709;52.536;5.688;2023-07-13T14:21:14;3.63;;;1.75;;
55784;SDS011;41709;52.536;5.688;2023-07-13T14:23:41;4.32;;;1.70;;
55784;SDS011;41709;52.536;5.688;2023-07-13T14:26:12;4.70;;;1.80;;
55784;SDS011;41709;52.536;5.688;2023-07-13T14:28:43;4.28;;;1.80;;
55784;SDS011;41709;52.536;5.688;2023-07-13T14:31:11;4.65;;;1.98;;
55784;SDS011;41709;52.536;5.688;2023-07-13T14:33:38;4.20;;;2.15;;
55784;SDS011;41709;52.536;5.688;2023-07-13T14:36:09;4.22;;;1.60;;
55784;SDS011;41709;52.536;5.688;2023-07-13T14:38:52;5.80;;;1.80;;
55784;SDS011;41709;52.536;5.688;2023-07-13T14:41:18;4.30;;;1.63;;
55784;SDS011;41709;52.536;5.688;2023-07-13T14:43:45;3.22;;;1.17;;
55784;SDS011;41709;52.536;5.688;2023-07-13T14:46:29;8.53;;;2.10;;
55784;SDS011;41709;52.536;5.688;2023-07-13T14:49:21;5.85;;;2.45;;
55784;SDS011;41709;52.536;5.688;2023-07-13T14:51:49;6.90;;;1.80;;
55784;SDS011;41709;52.536;5.688;2023-07-13T14:54:15;7.90;;;2.50;;
55784;SDS011;41709;52.536;5.688;2023-07-13T14:56:41;5.47;;;1.88;;
55784;SDS011;41709;52.536;5.688;2023-07-13T14:59:07;4.63;;;1.45;;
55784;SDS011;41709;52.536;5.688;2023-07-13T15:01:33;6.28;;;1.95;;
55784;SDS011;41709;52.536;5.688;2023-07-13T15:04:00;3.83;;;1.45;;
55784;SDS011;41709;52.536;5.688;2023-07-13T15:06:26;6.00;;;1.98;;
55784;SDS011;41709;52.536;5.688;2023-07-13T15:08:53;5.88;;;2.10;;
55784;SDS011;41709;52.536;5.688;2023-07-13T15:11:20;3.92;;;2.20;;
55784;SDS011;41709;52.536;5.688;2023-07-13T15:13:47;3.20;;;1.83;;
55784;SDS011;41709;52.536;5.688;2023-07-13T15:16:17;3.80;;;1.73;;
55784;SDS011;41709;52.536;5.688;2023-07-13T15:18:47;5.00;;;1.75;;
55784;SDS011;41709;52.536;5.688;2023-07-13T15:21:23;8.18;;;2.00;;
55784;SDS011;41709;52.536;5.688;2023-07-13T15:23:50;7.43;;;1.83;;
55784;SDS011;41709;52.536;5.688;2023-07-13T15:26:16;6.68;;;1.90;;
55784;SDS011;41709;52.536;5.688;2023-07-13T15:28:44;4.22;;;1.60;;
55784;SDS011;41709;52.536;5.688;2023-07-13T15:31:16;4.05;;;1.70;;